Time;durP1;ratioP1;P1;durP2;ratioP2;P2;SDS_P1;SDS_P2;PMS_P1;PMS_P2;Temp;Humidity;BMP_temperature;BMP_pressure;BME280_temperature;BME280_humidity;BME280_pressure;Samples;Min_cycle;Max_cycle;Signal;HPM_P1;HPM_P2
2024/04/11 00:00:46;;;;;;;4.73;1.73;;;;;;;11.35;85.27;102894.97;5436851;26;19998;-40
2024/04/11 00:03:11;;;;;;;3.55;1.25;;;;;;;11.36;85.21;102899.34;5436118;26;20041;-39
2024/04/11 00:05:39;;;;;;;5.45;1.50;;;;;;;11.38;85.05;102896.47;5426621;26;19995;-39
2024/04/11 00:08:05;;;;;;;4.78;1.48;;;;;;;11.37;84.34;102889.34;5420076;26;20399;-39
2024/04/11 00:10:30;;;;;;;6.22;1.48;;;;;;;11.32;85.12;102881.78;5420373;26;20006;-39
2024/04/11 00:12:56;;;;;;;9.40;1.40;;;;;;;11.39;83.68;102896.28;5420337;26;19995;-39
2024/04/11 00:15:21;;;;;;;9.17;2.23;;;;;;;11.41;84.02;102898.78;5420120;26;19991;-39
2024/04/11 00:17:46;;;;;;;6.10;1.67;;;;;;;11.40;85.00;102895.25;5418286;26;20007;-39
2024/04/11 00:20:12;;;;;;;7.40;1.57;;;;;;;11.40;84.57;102887.13;5420951;26;20297;-39
2024/04/11 00:22:37;;;;;;;5.47;1.77;;;;;;;11.41;85.89;102885.25;5420044;26;20321;-39
2024/04/11 00:25:02;;;;;;;5.43;1.63;;;;;;;11.38;84.82;102869.41;5420536;26;20423;-39
2024/04/11 00:27:28;;;;;;;6.07;1.52;;;;;;;11.42;84.49;102863.41;5420091;26;20317;-39
2024/04/11 00:29:53;;;;;;;7.65;1.55;;;;;;;11.41;84.97;102847.31;5419817;26;20023;-39
2024/04/11 00:32:18;;;;;;;4.27;1.30;;;;;;;11.46;84.58;102859.28;5419995;26;20061;-39
2024/04/11 00:34:44;;;;;;;6.63;1.33;;;;;;;11.44;83.81;102863.22;5419624;26;19999;-39
2024/04/11 00:37:12;;;;;;;4.47;1.40;;;;;;;11.52;82.99;102865.84;5419928;26;20225;-39
2024/04/11 00:39:38;;;;;;;6.30;2.00;;;;;;;11.49;83.02;102853.50;5419658;26;19999;-39
2024/04/11 00:42:03;;;;;;;5.77;1.50;;;;;;;11.55;82.52;102855.44;5420018;26;20010;-39
2024/04/11 00:44:32;;;;;;;5.60;1.77;;;;;;;11.56;82.57;102865.25;5419605;26;20217;-39
2024/04/11 00:46:57;;;;;;;4.97;1.45;;;;;;;11.51;82.39;102856.84;5419156;26;20064;-40
2024/04/11 00:49:23;;;;;;;7.32;1.30;;;;;;;11.56;82.48;102867.13;5419851;26;20011;-40
2024/04/11 00:51:52;;;;;;;5.97;1.38;;;;;;;11.62;81.33;102882.66;5419464;26;19996;-39
2024/04/11 00:54:18;;;;;;;6.43;1.20;;;;;;;11.59;81.61;102869.47;5419712;26;20035;-40
2024/04/11 00:56:44;;;;;;;6.43;2.05;;;;;;;11.57;81.43;102866.94;5419484;26;19996;-40
2024/04/11 00:59:10;;;;;;;3.97;1.45;;;;;;;11.66;80.72;102880.38;5419990;26;19996;-40
2024/04/11 01:01:36;;;;;;;5.03;1.40;;;;;;;11.67;80.30;102882.91;5419355;26;20081;-40
2024/04/11 01:04:05;;;;;;;7.32;1.70;;;;;;;11.65;82.04;102881.41;5419850;26;20011;-40
2024/04/11 01:09:31;;;;;;;2.95;1.10;;;;;;;11.69;81.13;102882.72;5420548;26;20010;-40
2024/04/11 01:11:56;;;;;;;;;;;;;;;11.75;80.23;102890.09;5420075;26;20010;-40
2024/04/11 01:14:23;;;;;;;4.38;1.23;;;;;;;11.70;80.84;102878.97;5419412;26;20256;-40
2024/04/11 01:16:48;;;;;;;7.05;1.65;;;;;;;11.70;80.63;102884.41;5417727;26;20007;-39
2024/04/11 01:19:13;;;;;;;5.22;1.42;;;;;;;11.69;81.43;102874.59;5419731;26;19999;-39
2024/04/11 01:21:39;;;;;;;4.40;1.20;;;;;;;11.69;81.08;102875.44;5419663;26;20176;-40
2024/04/11 01:24:04;;;;;;;7.50;1.60;;;;;;;11.70;81.84;102865.44;5420012;26;20210;-40
2024/04/11 01:26:30;;;;;;;5.50;1.38;;;;;;;11.74;80.55;102864.03;5419309;26;19995;-39
2024/04/11 01:28:55;;;;;;;6.10;1.40;;;;;;;11.74;80.98;102862.16;5419291;26;20011;-39
2024/04/11 01:31:20;;;;;;;8.35;2.15;;;;;;;11.70;80.83;102854.59;5418913;26;20003;-39
2024/04/11 01:33:46;;;;;;;4.90;1.38;;;;;;;11.67;80.24;102846.84;5419253;26;20006;-39
2024/04/11 01:36:13;;;;;;;6.32;2.13;;;;;;;11.74;79.99;102842.34;5418825;26;19991;-39
2024/04/11 01:38:38;;;;;;;5.45;1.45;;;;;;;11.76;80.08;102846.56;5418505;26;20323;-39
2024/04/11 01:41:04;;;;;;;4.93;1.50;;;;;;;11.77;79.47;102841.97;5418699;26;20004;-39
2024/04/11 01:43:29;;;;;;;5.60;1.37;;;;;;;11.70;80.37;102841.03;5418556;26;19991;-39
2024/04/11 01:45:54;;;;;;;4.90;1.60;;;;;;;11.76;81.04;102849.25;5419374;26;20642;-40
2024/04/11 01:48:20;;;;;;;5.53;1.30;;;;;;;11.73;80.13;102837.97;5418924;26;20420;-40
2024/04/11 01:50:46;;;;;;;5.03;1.27;;;;;;;11.77;80.39;102842.81;5419257;26;19996;-39
2024/04/11 01:53:12;;;;;;;6.25;1.70;;;;;;;11.74;80.59;102837.75;5418091;26;20258;-39
2024/04/11 01:55:37;;;;;;;5.40;1.48;;;;;;;11.73;80.95;102832.53;5419249;26;20019;-39
2024/04/11 01:58:04;;;;;;;4.72;1.23;;;;;;;11.75;81.24;102839.44;5418587;26;20002;-40
2024/04/11 02:00:36;;;;;;;5.72;1.60;;;;;;;11.75;81.87;102844.00;5418790;26;19995;-40
2024/04/11 02:03:04;;;;;;;3.75;1.17;;;;;;;11.75;79.55;102858.41;5419107;26;20311;-40
2024/04/11 02:05:30;;;;;;;6.47;1.50;;;;;;;11.78;80.56;102851.78;5419071;26;19995;-40
2024/04/11 02:07:56;;;;;;;4.55;1.65;;;;;;;11.77;80.15;102852.81;5418635;26;19992;-40
2024/04/11 02:10:21;;;;;;;5.50;1.60;;;;;;;11.73;81.89;102843.38;5418887;26;19992;-40
2024/04/11 02:16:45;;;;;;;4.93;1.35;;;;;;;11.72;81.32;102834.41;5418258;26;20069;-40
2024/04/11 02:19:12;;;;;;;8.63;2.10;;;;;;;11.72;80.56;102836.28;5418603;26;20006;-40
2024/04/11 02:21:42;;;;;;;8.45;1.40;;;;;;;11.73;82.37;102836.09;5418919;26;20297;-39
2024/04/11 02:24:22;;;;;;;5.72;1.60;;;;;;;11.69;81.28;102836.66;5418544;26;19995;-39
2024/04/11 02:26:48;;;;;;;6.25;1.50;;;;;;;11.70;81.44;102830.19;5418144;26;19999;-39
2024/04/11 02:29:17;;;;;;;7.00;1.80;;;;;;;11.71;80.96;102846.28;5417753;26;19991;-39
2024/04/11 02:31:43;;;;;;;5.40;1.40;;;;;;;11.68;80.86;102853.94;5418068;26;20003;-39
2024/04/11 02:34:09;;;;;;;3.70;1.50;;;;;;;11.65;81.33;102862.44;5418173;26;19999;-39
2024/04/11 02:36:34;;;;;;;6.38;2.03;;;;;;;11.65;81.26;102860.56;5418016;26;19996;-39
2024/04/11 02:39:02;;;;;;;5.93;1.77;;;;;;;11.63;82.59;102854.50;5418545;26;20427;-39
2024/04/11 02:41:28;;;;;;;7.00;1.55;;;;;;;11.64;82.04;102852.63;5417754;26;20027;-39
2024/04/11 02:43:53;;;;;;;;;;;;;;;11.67;81.97;102847.69;5418499;26;19997;-39
2024/04/11 02:46:19;;;;;;;6.20;1.30;;;;;;;11.62;81.55;102854.72;5417838;26;19994;-39
2024/04/11 02:48:45;;;;;;;5.82;1.75;;;;;;;11.57;82.29;102842.56;5417844;26;19995;-39
2024/04/11 02:51:11;;;;;;;;;;;;;;;11.71;81.97;102849.00;5418254;26;20060;-40
2024/04/11 02:53:39;;;;;;;5.30;1.23;;;;;;;11.60;82.53;102853.00;5417979;26;20340;-40
2024/04/11 02:56:08;;;;;;;6.00;1.52;;;;;;;11.63;82.67;102853.69;5417596;26;19999;-40
2024/04/11 02:58:34;;;;;;;6.85;1.70;;;;;;;11.63;82.24;102859.09;5419139;26;20303;-39
2024/04/11 03:01:00;;;;;;;;;;;;;;;11.71;82.02;102849.00;5418394;26;20000;-39
2024/04/11 03:03:26;;;;;;;5.03;1.67;;;;;;;11.59;83.26;102845.91;5417853;26;19925;-39
2024/04/11 03:05:51;;;;;;;6.32;1.50;;;;;;;11.60;82.43;102846.75;5416342;26;20065;-39
2024/04/11 03:08:16;;;;;;;5.57;1.70;;;;;;;11.52;83.45;102842.28;5417790;26;20008;-39
2024/04/11 03:10:42;;;;;;;4.60;1.30;;;;;;;11.55;83.92;102852.72;5418306;26;20709;-39
2024/04/11 03:13:08;;;;;;;3.72;1.15;;;;;;;11.53;83.29;102846.69;5417222;26;21972;-39
2024/04/11 03:15:33;;;;;;;7.27;1.77;;;;;;;11.48;84.04;102840.97;5418287;26;19992;-40
2024/04/11 03:17:58;;;;;;;7.83;1.50;;;;;;;11.50;84.99;102836.19;5417390;26;20258;-40
2024/04/11 03:20:23;;;;;;;6.33;1.80;;;;;;;11.49;84.45;102834.53;5417933;26;19991;-40
2024/04/11 03:22:49;;;;;;;5.27;1.63;;;;;;;11.52;84.66;102849.59;5417185;26;20218;-40
2024/04/11 03:25:14;;;;;;;5.37;1.97;;;;;;;11.50;84.22;102841.63;5417831;26;20355;-39
2024/04/11 03:27:40;;;;;;;4.78;1.13;;;;;;;11.50;84.71;102847.03;5417043;26;20006;-40
2024/04/11 03:30:05;;;;;;;5.90;1.40;;;;;;;11.49;86.11;102841.81;5417705;26;19991;-40
2024/04/11 03:32:31;;;;;;;4.18;1.40;;;;;;;11.53;85.38;102845.84;5416911;26;19995;-40
2024/04/11 03:34:57;;;;;;;3.77;1.13;;;;;;;11.52;86.71;102845.00;5416994;26;19998;-40
2024/04/11 03:37:22;;;;;;;;;;;;;;;11.60;85.63;102844.88;5417443;26;20210;-40
2024/04/11 03:39:48;;;;;;;3.73;1.30;;;;;;;11.51;86.46;102837.88;5417589;26;19932;-40
2024/04/11 03:42:14;;;;;;;9.10;2.15;;;;;;;11.50;86.75;102838.91;5420689;26;20214;-40
2024/04/11 03:44:42;;;;;;;5.38;1.30;;;;;;;11.47;89.19;102830.34;5421017;26;19999;-40
2024/04/11 03:47:08;;;;;;;6.65;1.60;;;;;;;11.47;89.34;102822.22;5420094;26;20065;-40
2024/04/11 03:49:34;;;;;;;;;;;;;;;11.57;86.89;102822.75;5420959;26;20021;-40
2024/04/11 03:52:00;;;;;;;5.00;1.80;;;;;;;11.42;87.95;102809.25;5420005;26;19933;-40
2024/04/11 03:54:25;;;;;;;6.03;1.42;;;;;;;11.40;88.36;102808.56;5419870;26;20007;-40
2024/04/11 03:56:51;;;;;;;5.07;1.60;;;;;;;11.46;88.00;102824.06;5420230;26;20002;-39
2024/04/11 03:59:16;;;;;;;4.03;1.23;;;;;;;11.44;88.57;102809.88;5420297;26;20313;-39
2024/04/11 04:01:41;;;;;;;9.00;2.10;;;;;;;11.44;88.22;102820.72;5420193;26;20403;-40
2024/04/11 04:04:07;;;;;;;5.45;1.98;;;;;;;11.41;88.30;102820.25;5420798;26;20205;-40
2024/04/11 04:06:33;;;;;;;4.90;1.25;;;;;;;11.44;89.65;102819.88;5420144;26;19991;-40
2024/04/11 04:09:01;;;;;;;5.25;1.30;;;;;;;11.43;89.29;102823.63;5420112;26;19996;-40
2024/04/11 04:11:26;;;;;;;4.65;1.60;;;;;;;11.40;89.35;102818.56;5419690;26;20072;-40
2024/04/11 04:13:54;;;;;;;3.65;1.17;;;;;;;11.40;90.39;102800.44;5420048;26;20401;-39
2024/04/11 04:16:20;;;;;;;4.72;1.42;;;;;;;11.37;89.89;102802.69;5419652;26;20019;-39
2024/04/11 04:18:50;;;;;;;5.47;1.50;;;;;;;11.36;89.78;102801.84;5419878;26;20002;-39
2024/04/11 04:21:16;;;;;;;4.97;1.50;;;;;;;11.26;91.27;102785.88;5419927;26;20007;-40
2024/04/11 04:23:43;;;;;;;3.30;1.17;;;;;;;11.31;91.45;102806.97;5419934;26;19991;-40
2024/04/11 04:26:10;;;;;;;4.00;1.10;;;;;;;11.23;91.95;102794.41;5420097;26;20332;-39
2024/04/11 04:28:38;;;;;;;4.88;1.30;;;;;;;11.31;91.14;102806.97;5420136;26;20072;-39
2024/04/11 04:31:25;;;;;;;5.40;1.60;;;;;;;11.32;92.11;102805.94;5420010;26;19996;-40
2024/04/11 04:33:53;;;;;;;5.65;1.40;;;;;;;11.30;92.61;102805.31;5419384;26;20335;-39
2024/04/11 04:36:20;;;;;;;4.78;1.13;;;;;;;11.20;92.51;102791.22;5420151;26;20045;-39
2024/04/11 04:38:46;;;;;;;4.20;1.35;;;;;;;11.30;92.68;102800.72;5419390;26;20003;-40
2024/04/11 04:41:15;;;;;;;6.22;2.03;;;;;;;11.21;93.38;102784.78;5419998;26;20048;-40
2024/04/11 04:43:45;;;;;;;6.40;1.60;;;;;;;11.25;93.46;102794.19;5419318;26;20003;-40
2024/04/11 04:46:15;;;;;;;5.10;1.45;;;;;;;11.24;93.97;102801.50;5420094;26;20025;-40
2024/04/11 04:48:41;;;;;;;4.72;1.30;;;;;;;11.14;95.96;102781.97;5418985;26;20323;-40
2024/04/11 04:51:06;;;;;;;5.85;1.40;;;;;;;11.18;94.60;102788.72;5419388;26;20004;-40
2024/04/11 04:53:32;;;;;;;9.17;2.40;;;;;;;11.23;95.12;102797.09;5419354;26;19995;-39
2024/04/11 04:55:57;;;;;;;6.97;2.00;;;;;;;11.21;96.16;102790.19;5420012;26;20011;-40
2024/04/11 04:58:23;;;;;;;5.75;1.40;;;;;;;11.21;95.83;102790.19;5419049;26;19996;-39
2024/04/11 05:00:48;;;;;;;5.10;1.80;;;;;;;11.17;96.27;102784.28;5419747;26;20011;-40
2024/04/11 05:03:14;;;;;;;5.10;1.27;;;;;;;11.21;96.60;102803.72;5419043;26;20000;-39
2024/04/11 05:05:40;;;;;;;;;;;;;;;11.29;97.30;102793.63;5420125;26;20285;-40
2024/04/11 05:08:07;;;;;;;3.57;1.20;;;;;;;11.27;97.45;102801.13;5418985;26;19925;-40
2024/04/11 05:10:37;;;;;;;4.53;1.70;;;;;;;11.24;97.90;102789.81;5419201;26;20431;-40
2024/04/11 05:13:09;;;;;;;4.03;1.48;;;;;;;11.28;98.12;102808.22;5419117;26;19991;-40
2024/04/11 05:15:40;;;;;;;5.28;1.63;;;;;;;11.26;98.56;102807.53;5419177;26;20008;-39
2024/04/11 05:18:06;;;;;;;4.35;1.27;;;;;;;11.19;99.26;102792.25;5419654;26;20000;-39
2024/04/11 05:20:33;;;;;;;9.10;1.63;;;;;;;11.25;100.00;102794.19;5419489;26;20006;-40
2024/04/11 05:22:59;;;;;;;3.85;1.30;;;;;;;11.27;100.00;102803.84;5418747;26;20324;-40
2024/04/11 05:25:24;;;;;;;4.07;1.02;;;;;;;11.28;100.00;102810.09;5419039;26;20219;-40
2024/04/11 05:27:50;;;;;;;5.68;1.10;;;;;;;11.33;100.00;102827.44;5418719;26;20007;-39
2024/04/11 05:30:15;;;;;;;6.18;1.08;;;;;;;11.36;100.00;102828.94;5419545;26;19995;-40
2024/04/11 05:32:46;;;;;;;6.93;2.03;;;;;;;11.36;100.00;102834.34;5418558;26;19997;-40
2024/04/11 05:35:12;;;;;;;6.80;1.50;;;;;;;11.39;100.00;102844.81;5418774;26;20004;-40
2024/04/11 05:37:41;;;;;;;4.60;1.20;;;;;;;11.40;100.00;102840.25;5418777;26;20000;-39
2024/04/11 05:40:12;;;;;;;4.38;1.30;;;;;;;11.38;100.00;102843.16;5417007;26;20327;-39
2024/04/11 05:42:44;;;;;;;5.65;1.38;;;;;;;11.44;100.00;102850.50;5418775;26;20006;-40
2024/04/11 05:45:11;;;;;;;5.93;1.27;;;;;;;11.50;100.00;102857.03;5419034;26;20431;-40
2024/04/11 05:47:36;;;;;;;3.97;1.10;;;;;;;11.48;100.00;102859.13;5418429;26;20451;-39
2024/04/11 05:50:04;;;;;;;5.00;1.70;;;;;;;11.46;100.00;102853.84;5419370;26;20061;-39
2024/04/11 05:52:30;;;;;;;3.40;1.05;;;;;;;11.51;100.00;102864.13;5418888;26;20008;-39
2024/04/11 05:54:56;;;;;;;5.15;1.55;;;;;;;11.47;100.00;102855.56;5419000;26;19999;-39
2024/04/11 05:57:21;;;;;;;6.15;1.33;;;;;;;11.53;100.00;102862.94;5418591;26;20451;-39
2024/04/11 05:59:47;;;;;;;4.63;1.73;;;;;;;11.57;100.00;102879.66;5419842;26;20006;-39
2024/04/11 06:02:16;;;;;;;5.00;1.70;;;;;;;11.53;100.00;102871.06;5418770;26;20003;-39
2024/04/11 06:04:42;;;;;;;7.10;1.52;;;;;;;11.57;100.00;102877.78;5418027;26;20210;-39
2024/04/11 06:07:10;;;;;;;6.05;1.30;;;;;;;11.56;100.00;102870.66;5418837;26;20010;-39
2024/04/11 06:09:36;;;;;;;7.85;1.48;;;;;;;11.55;100.00;102879.00;5418702;26;20004;-39
2024/04/11 06:12:02;;;;;;;5.90;1.30;;;;;;;11.59;100.00;102886.56;5418779;26;20421;-39
2024/04/11 06:14:28;;;;;;;6.28;1.33;;;;;;;11.53;100.00;102879.19;5419168;26;20004;-39
2024/04/11 06:16:54;;;;;;;4.90;1.30;;;;;;;11.60;100.00;102890.94;5418906;26;19996;-39
2024/04/11 06:19:19;;;;;;;6.55;1.40;;;;;;;11.60;100.00;102885.53;5418872;26;20007;-40
2024/04/11 06:21:47;;;;;;;4.83;1.40;;;;;;;11.55;100.00;102893.38;5418605;26;20004;-39
2024/04/11 06:24:12;;;;;;;7.65;2.30;;;;;;;11.58;100.00;102897.59;5418766;26;20299;-39
2024/04/11 06:26:37;;;;;;;8.00;1.50;;;;;;;11.50;100.00;102889.56;5418150;26;19996;-39
2024/04/11 06:29:07;;;;;;;8.02;1.77;;;;;;;11.60;100.00;102901.78;5417980;26;19999;-39
2024/04/11 06:31:33;;;;;;;4.78;1.60;;;;;;;11.63;100.00;102900.56;5417789;26;20393;-39
2024/04/11 06:33:58;;;;;;;5.05;1.38;;;;;;;11.60;100.00;102900.94;5418325;26;20003;-39
2024/04/11 06:36:24;;;;;;;7.22;1.50;;;;;;;11.63;100.00;102907.88;5417759;26;20057;-40
2024/04/11 06:38:51;;;;;;;5.82;1.63;;;;;;;11.63;100.00;102905.16;5418323;26;20010;-40
2024/04/11 06:41:22;;;;;;;6.22;1.75;;;;;;;11.62;100.00;102901.63;5417617;26;19995;-39
2024/04/11 06:43:49;;;;;;;6.20;1.92;;;;;;;11.62;100.00;102900.78;5417934;26;20002;-41
2024/04/11 06:46:14;;;;;;;5.90;1.65;;;;;;;11.60;100.00;102896.38;5418217;26;19995;-40
2024/04/11 06:48:43;;;;;;;6.85;2.17;;;;;;;11.62;100.00;102903.50;5416507;26;20002;-40
2024/04/11 06:51:09;;;;;;;5.18;2.20;;;;;;;11.62;100.00;102901.63;5417839;26;20006;-40
2024/04/11 06:53:36;;;;;;;;;;;;;;;11.73;100.00;102905.72;5418106;26;20007;-39
2024/04/11 06:56:07;;;;;;;7.53;2.15;;;;;;;11.66;100.00;102899.34;5418356;26;19925;-39
2024/04/11 06:58:36;;;;;;;6.50;1.90;;;;;;;11.64;100.00;102896.84;5417428;26;20001;-40
2024/04/11 07:01:01;;;;;;;4.65;1.60;;;;;;;11.66;100.00;102888.50;5418205;26;20002;-40
2024/04/11 07:03:28;;;;;;;10.18;2.60;;;;;;;11.57;100.00;102869.66;5417216;26;19987;-40
2024/04/11 07:08:58;;;;;;;7.18;1.55;;;;;;;11.66;100.00;102883.09;5416457;26;20323;-40
2024/04/11 07:11:27;;;;;;;5.63;1.50;;;;;;;11.71;100.00;102886.94;5417326;26;20065;-39
2024/04/11 07:13:56;;;;;;;4.88;1.48;;;;;;;11.70;100.00;102885.22;5417061;26;20504;-40
2024/04/11 07:16:26;;;;;;;3.47;1.80;;;;;;;11.73;100.00;102892.16;5419817;26;20010;-40
2024/04/11 07:18:58;;;;;;;7.32;1.83;;;;;;;11.75;100.00;102898.22;5420758;26;19996;-40
2024/04/11 07:21:25;;;;;;;7.53;2.50;;;;;;;11.73;100.00;102900.28;5421673;26;20064;-39
2024/04/11 07:23:54;;;;;;;5.85;1.50;;;;;;;11.73;100.00;102900.28;5421124;26;20451;-40
2024/04/11 07:26:30;;;;;;;3.97;1.40;;;;;;;11.66;100.00;102894.75;5421405;26;20007;-40
2024/04/11 07:29:06;;;;;;;5.40;1.50;;;;;;;11.72;100.00;102909.47;5420796;26;20001;-40
2024/04/11 07:31:34;;;;;;;4.88;1.80;;;;;;;11.76;100.00;102922.44;5420829;26;20004;-40
2024/04/11 07:34:02;;;;;;;5.53;1.60;;;;;;;11.72;100.00;102923.00;5420276;26;19991;-39
2024/04/11 07:36:32;;;;;;;5.88;1.60;;;;;;;11.64;100.00;102921.22;5421156;26;19999;-39
2024/04/11 07:38:58;;;;;;;2.95;1.35;;;;;;;11.71;100.00;102935.72;5420316;26;20010;-40
2024/04/11 07:41:27;;;;;;;3.85;1.38;;;;;;;11.71;100.00;102938.44;5420789;26;19995;-39
2024/04/11 07:43:59;;;;;;;5.03;1.30;;;;;;;11.75;100.00;102947.00;5420156;26;20061;-39
2024/04/11 07:46:28;;;;;;;4.90;1.33;;;;;;;11.77;100.00;102955.81;5420436;26;19995;-39
2024/04/11 07:48:55;;;;;;;4.38;1.58;;;;;;;11.78;100.00;102949.34;5420905;26;20072;-40
2024/04/11 07:51:21;;;;;;;4.25;1.33;;;;;;;11.82;100.00;102962.38;5420736;26;20021;-40
2024/04/11 07:53:48;;;;;;;4.30;1.40;;;;;;;11.79;100.00;102964.59;5419862;26;19999;-40
2024/04/11 07:56:26;;;;;;;4.50;1.42;;;;;;;11.77;100.00;102950.41;5420881;26;20007;-39
2024/04/11 07:58:55;;;;;;;7.10;1.40;;;;;;;11.81;100.00;102967.97;5420290;26;19991;-39
2024/04/11 08:01:22;;;;;;;4.95;1.60;;;;;;;11.84;100.00;102976.56;5421167;26;20011;-39
2024/04/11 08:03:49;;;;;;;7.57;1.65;;;;;;;11.79;100.00;102976.25;5420511;26;20391;-39
2024/04/11 08:06:16;;;;;;;5.05;1.48;;;;;;;11.81;100.00;102981.53;5420802;26;20007;-39
2024/04/11 08:08:42;;;;;;;7.43;1.70;;;;;;;11.80;100.00;102980.66;5420522;26;20002;-40
2024/04/11 08:11:10;;;;;;;4.85;1.60;;;;;;;11.90;100.00;102987.69;5420707;26;19992;-39
2024/04/11 08:13:38;;;;;;;6.85;1.88;;;;;;;11.86;100.00;102987.25;5420186;26;20072;-40
2024/04/11 08:16:08;;;;;;;3.80;1.50;;;;;;;11.84;100.00;102981.16;5420369;26;20008;-40
2024/04/11 08:18:34;;;;;;;3.78;1.50;;;;;;;11.87;100.00;102982.66;5420301;26;20027;-40
2024/04/11 08:21:00;;;;;;;4.70;1.55;;;;;;;11.91;100.00;102998.38;5420426;26;20002;-39
2024/04/11 08:23:25;;;;;;;8.77;2.03;;;;;;;11.93;100.00;103000.88;5420428;26;19996;-40
2024/04/11 08:25:55;;;;;;;5.07;1.60;;;;;;;11.92;100.00;103008.19;5419761;26;19996;-39
2024/04/11 08:28:21;;;;;;;4.50;1.50;;;;;;;11.90;100.00;103014.81;5419818;26;20340;-39
2024/04/11 08:30:47;;;;;;;5.97;1.70;;;;;;;11.90;100.00;103020.22;5420236;26;20008;-39
2024/04/11 08:33:14;;;;;;;8.30;2.03;;;;;;;11.90;100.00;103020.22;5419336;26;20443;-40
2024/04/11 08:35:44;;;;;;;5.57;1.75;;;;;;;11.95;100.00;103021.34;5420017;26;20323;-39
2024/04/11 08:38:12;;;;;;;4.43;1.67;;;;;;;11.96;100.00;103019.50;5419701;26;20031;-39
2024/04/11 08:40:40;;;;;;;4.28;1.40;;;;;;;11.94;100.00;103008.81;5419931;26;20327;-40
2024/04/11 08:43:09;;;;;;;5.75;1.42;;;;;;;11.95;100.00;103017.78;5419591;26;19999;-40
2024/04/11 08:45:35;;;;;;;5.28;1.83;;;;;;;12.00;100.00;103018.06;5419858;26;20441;-39
2024/04/11 08:48:02;;;;;;;6.00;1.70;;;;;;;12.03;100.00;103029.41;5419100;26;20009;-39
2024/04/11 08:50:27;;;;;;;7.30;2.10;;;;;;;12.09;100.00;103034.06;5420248;26;20447;-39
2024/04/11 08:52:54;;;;;;;;;;;;;;;12.23;100.00;103032.38;5420038;26;20035;-40
2024/04/11 08:55:19;;;;;;;6.22;2.30;;;;;;;12.19;100.00;103032.94;5419295;26;19925;-39
2024/04/11 08:57:45;;;;;;;3.33;1.30;;;;;;;12.22;100.00;103022.56;5419515;26;20447;-40
2024/04/11 09:00:13;;;;;;;6.55;1.90;;;;;;;12.23;100.00;103009.84;5417740;26;19992;-40
2024/04/11 09:02:41;;;;;;;3.65;1.38;;;;;;;12.35;100.00;103025.44;5419450;26;19992;-40
2024/04/11 09:05:10;;;;;;;4.22;1.90;;;;;;;12.37;100.00;103025.25;5419668;26;20303;-40
2024/04/11 09:07:37;;;;;;;7.35;1.98;;;;;;;12.42;100.00;103028.22;5419741;26;19999;-39
2024/04/11 09:10:05;;;;;;;5.55;1.58;;;;;;;12.35;100.00;103016.47;5419302;26;19999;-39
2024/04/11 09:12:30;;;;;;;5.97;1.75;;;;;;;12.51;100.00;103032.53;5419209;26;20007;-39
2024/04/11 09:14:56;;;;;;;;;;;;;;;12.64;100.00;103040.00;5419969;26;19988;-40
2024/04/11 09:17:21;;;;;;;4.13;1.60;;;;;;;12.56;100.00;103037.38;5418927;26;19941;-40
2024/04/11 09:19:47;;;;;;;4.30;1.50;;;;;;;12.55;100.00;103049.28;5419156;26;20210;-40
2024/04/11 09:22:13;;;;;;;;;;;;;;;12.72;100.00;103058.84;5419667;26;20007;-40
2024/04/11 09:24:48;;;;;;;6.00;2.00;;;;;;;12.66;100.00;103061.50;5419459;26;20338;-40
2024/04/11 09:27:16;;;;;;;3.08;1.27;;;;;;;12.67;100.00;103055.03;5419003;26;19996;-39
2024/04/11 09:29:46;;;;;;;4.63;1.80;;;;;;;12.71;100.00;103053.63;5419631;26;20007;-39
2024/04/11 09:32:13;;;;;;;3.92;1.58;;;;;;;12.76;100.00;103045.75;5418647;26;20385;-39
2024/04/11 09:34:40;;;;;;;5.75;1.90;;;;;;;12.88;100.00;103060.47;5419175;26;20014;-39
2024/04/11 09:37:15;;;;;;;5.72;2.00;;;;;;;12.91;100.00;103051.97;5418579;26;19991;-39
2024/04/11 09:39:45;;;;;;;5.97;1.90;;;;;;;12.95;100.00;103064.13;5418274;26;20011;-40
2024/04/11 09:42:25;;;;;;;3.60;1.67;;;;;;;12.97;100.00;103069.34;5419219;26;20070;-40
2024/04/11 09:44:52;;;;;;;5.82;2.15;;;;;;;12.98;100.00;103057.44;5419474;26;20010;-40
2024/04/11 09:47:26;;;;;;;5.43;1.85;;;;;;;12.96;100.00;103068.53;5418514;26;20018;-39
2024/04/11 09:49:54;;;;;;;4.38;1.85;;;;;;;12.94;100.00;103072.47;5419018;26;19996;-40
2024/04/11 09:52:22;;;;;;;5.68;2.05;;;;;;;12.89;100.00;103070.34;5418706;26;20003;-39
2024/04/11 09:54:51;;;;;;;4.55;1.90;;;;;;;12.88;100.00;103072.22;5418813;26;20010;-39
2024/04/11 09:57:17;;;;;;;5.95;2.00;;;;;;;12.94;100.00;103077.91;5418637;26;20399;-39
2024/04/11 09:59:43;;;;;;;6.22;2.20;;;;;;;12.99;100.00;103081.72;5419488;26;19999;-39
2024/04/11 10:02:09;;;;;;;;;;;;;;;13.11;100.00;103080.16;5419732;26;19999;-39
2024/04/11 10:04:36;;;;;;;5.95;2.50;;;;;;;13.03;100.00;103083.03;5418915;26;19932;-40
2024/04/11 10:07:08;;;;;;;3.35;2.17;;;;;;;13.02;100.00;103078.59;5418825;26;19999;-40
2024/04/11 10:09:46;;;;;;;5.03;2.45;;;;;;;13.08;100.00;103086.00;5418483;26;19996;-40
2024/04/11 10:12:11;;;;;;;7.70;2.40;;;;;;;13.06;100.00;103077.19;5418946;26;20010;-39
2024/04/11 10:14:40;;;;;;;;;;;;;;;13.21;100.00;103079.84;5419273;26;19992;-40
2024/04/11 10:17:07;;;;;;;5.65;2.45;;;;;;;13.11;100.00;103082.88;5418327;26;19932;-39
2024/04/11 10:19:35;;;;;;;6.40;2.72;;;;;;;13.15;100.00;103092.34;5419155;26;20431;-39
2024/04/11 10:22:05;;;;;;;4.47;2.58;;;;;;;13.17;100.00;103092.13;5418893;26;20072;-39
2024/04/11 10:24:34;;;;;;;3.85;2.28;;;;;;;13.18;100.00;103091.13;5418900;26;20002;-39
2024/04/11 10:27:19;;;;;;;4.53;2.55;;;;;;;13.18;100.00;103107.41;5417966;26;19999;-40
2024/04/11 10:29:47;;;;;;;6.00;2.75;;;;;;;13.18;100.00;103112.00;5418227;26;19992;-40
2024/04/11 10:32:21;;;;;;;6.10;2.83;;;;;;;13.20;100.00;103107.22;5418530;26;20003;-40
2024/04/11 10:34:56;;;;;;;5.68;3.10;;;;;;;13.15;100.00;103105.91;5418400;26;20006;-40
2024/04/11 10:37:23;;;;;;;6.57;2.92;;;;;;;13.24;100.00;103116.69;5418753;26;19996;-40
2024/04/11 10:39:54;;;;;;;3.70;2.92;;;;;;;13.24;100.00;103116.69;5418390;26;19999;-40
2024/04/11 10:42:20;;;;;;;6.10;3.05;;;;;;;13.32;100.00;103125.56;5418302;26;20003;-40
2024/04/11 10:44:45;;;;;;;;;;;;;;;13.45;100.00;103130.28;5419158;26;20398;-40
2024/04/11 10:47:13;;;;;;;6.60;3.33;;;;;;;13.39;100.00;103125.63;5418251;26;19932;-40
2024/04/11 10:49:41;;;;;;;8.20;3.55;;;;;;;13.36;100.00;103126.84;5417918;26;20424;-40
2024/04/11 10:52:10;;;;;;;7.63;3.92;;;;;;;13.33;100.00;103129.13;5417840;26;20319;-39
2024/04/11 10:54:43;;;;;;;6.13;3.88;;;;;;;13.23;100.00;103115.03;5417733;26;19996;-39
2024/04/11 10:57:12;;;;;;;6.82;4.20;;;;;;;13.28;100.00;103127.00;5417497;26;20000;-39
2024/04/11 10:59:50;;;;;;;5.95;4.28;;;;;;;13.26;100.00;103123.59;5418000;26;20375;-39
2024/04/11 11:02:25;;;;;;;6.07;4.13;;;;;;;13.37;100.00;103124.97;5417639;26;20308;-39
2024/04/11 11:04:54;;;;;;;6.13;4.25;;;;;;;13.39;100.00;103126.47;5418205;26;19995;-40
2024/04/11 11:07:23;;;;;;;10.40;4.53;;;;;;;13.43;100.00;103118.78;5417276;26;19991;-39
2024/04/11 11:09:52;;;;;;;6.32;4.50;;;;;;;13.46;100.00;103131.09;5417475;26;20339;-39
2024/04/11 11:12:23;;;;;;;6.60;4.82;;;;;;;13.46;100.00;103131.94;5417413;26;20452;-39
2024/04/11 11:14:53;;;;;;;7.70;4.57;;;;;;;13.45;100.00;103134.88;5417021;26;20006;-40
2024/04/11 11:17:18;;;;;;;5.35;4.80;;;;;;;13.45;100.00;103141.16;5417084;26;20000;-40
2024/04/11 11:19:50;;;;;;;;;;;;;;;13.61;100.00;103149.03;5418488;26;19996;-40
2024/04/11 11:22:29;;;;;;;6.10;5.30;;;;;;;13.59;100.00;103136.69;5416986;26;19925;-40
2024/04/11 11:24:58;;;;;;;6.68;5.25;;;;;;;13.54;100.00;103142.69;5417264;26;20023;-40
2024/04/11 11:27:28;;;;;;;8.05;5.72;;;;;;;13.54;100.00;103145.41;5415121;26;19999;-39
2024/04/11 11:29:55;;;;;;;9.38;6.35;;;;;;;13.54;100.00;103133.72;5417405;26;19999;-39
2024/04/11 11:32:21;;;;;;;6.75;5.43;;;;;;;13.49;100.00;103126.13;5417340;26;19996;-40
2024/04/11 11:34:47;;;;;;;;;;;;;;;13.72;100.00;103135.97;5418104;26;20010;-40